createdAt,value
2023-02-27T00:02:26.567Z,99069.31
2023-02-27T00:05:00.894Z,99072.34
2023-02-27T00:07:34.554Z,99063.59
2023-02-27T00:10:09.788Z,99060.09
2023-02-27T00:12:53.013Z,99062.13
2023-02-27T00:15:26.927Z,99062.94
2023-02-27T00:18:02.625Z,99075.53
2023-02-27T00:20:38.250Z,99072.50
2023-02-27T00:23:11.743Z,99087.56
2023-02-27T00:25:45.273Z,99082.38
2023-02-27T00:28:18.365Z,99087.56
2023-02-27T00:30:51.832Z,99073.16
2023-02-27T00:33:26.818Z,99082.53
2023-02-27T00:36:02.701Z,99090.75
2023-02-27T00:38:36.544Z,99067.47
2023-02-27T00:41:09.769Z,99083.88
2023-02-27T00:43:44.020Z,99074.63
2023-02-27T00:46:17.246Z,99078.19
2023-02-27T00:48:52.152Z,99057.69
2023-02-27T00:51:25.873Z,99075.81
2023-02-27T00:53:59.138Z,99074.63
2023-02-27T00:56:32.932Z,99074.25
2023-02-27T00:59:06.281Z,99068.53
2023-02-27T01:01:40.101Z,99070.94
2023-02-27T01:04:14.616Z,99059.00
2023-02-27T01:06:48.788Z,99066.22
2023-02-27T01:09:22.404Z,99062.56
2023-02-27T01:12:00.508Z,99047.28
2023-02-27T01:14:34.090Z,99050.97
2023-02-27T01:17:07.832Z,99063.06
2023-02-27T01:19:42.875Z,99053.81
2023-02-27T01:22:17.428Z,99074.94
2023-02-27T01:24:50.639Z,99077.47
2023-02-27T01:27:23.998Z,99091.34
2023-02-27T01:29:57.393Z,99099.22
2023-02-27T01:32:30.745Z,99083.28
2023-02-27T01:35:06.445Z,99088.13
2023-02-27T01:37:40.304Z,99102.06
2023-02-27T01:40:14.861Z,99102.22
2023-02-27T01:42:48.157Z,99089.66
2023-02-27T01:45:30.877Z,99083.28
2023-02-27T01:48:11.951Z,99074.41
2023-02-27T01:50:51.897Z,99090.84
2023-02-27T01:53:27.207Z,99085.66
2023-02-27T01:56:06.293Z,99083.13
2023-02-27T01:58:40.759Z,99086.97
2023-02-27T02:01:14.044Z,99086.47
2023-02-27T02:03:50.204Z,99093.84
2023-02-27T02:06:25.140Z,99102.22
2023-02-27T02:09:00.987Z,99102.56
2023-02-27T02:11:34.767Z,99087.00
2023-02-27T02:14:11.017Z,99092.53
2023-02-27T02:16:56.253Z,99086.81
2023-02-27T02:19:54.489Z,99110.09
2023-02-27T02:23:06.951Z,99100.41
2023-02-27T02:26:11.981Z,99082.63
2023-02-27T02:29:12.947Z,99085.28
2023-02-27T02:32:27.597Z,99086.16
2023-02-27T02:35:45.806Z,99095.19
2023-02-27T02:39:06.367Z,99093.84
2023-02-27T02:41:54.557Z,99111.41
2023-02-27T02:44:41.238Z,99115.94
2023-02-27T02:47:23.704Z,99135.06
2023-02-27T02:50:02.059Z,99144.09
2023-02-27T02:52:45.299Z,99142.25
2023-02-27T02:55:25.957Z,99147.44
2023-02-27T02:58:05.567Z,99144.09
2023-02-27T03:00:45.005Z,99128.84
2023-02-27T03:03:26.345Z,99109.09
2023-02-27T03:06:04.971Z,99109.59
2023-02-27T03:08:44.904Z,99116.16
2023-02-27T03:11:21.681Z,99116.63
2023-02-27T03:14:00.112Z,99126.16
2023-02-27T03:16:41.175Z,99134.69
2023-02-27T03:19:19.357Z,99144.09
2023-02-27T03:21:56.753Z,99142.91
2023-02-27T03:24:34.893Z,99136.72
2023-02-27T03:27:11.043Z,99154.66
2023-02-27T03:29:50.806Z,99141.41
2023-02-27T03:32:30.268Z,99141.78
2023-02-27T03:35:05.127Z,99134.75
2023-02-27T03:37:52.564Z,99147.13
2023-02-27T03:40:30.485Z,99146.69
2023-02-27T03:43:17.965Z,99145.78
2023-02-27T03:45:58.090Z,99151.97
2023-02-27T03:48:32.282Z,99079.97
2023-02-27T03:51:06.578Z,99160.34
2023-02-27T03:53:46.080Z,99165.84
2023-02-27T03:56:25.264Z,99172.91
2023-02-27T03:59:00.205Z,99175.59
2023-02-27T04:01:33.761Z,99190.97
2023-02-27T04:04:11.343Z,99207.88
2023-02-27T04:07:07.677Z,99189.59
2023-02-27T04:09:57.820Z,99216.94
2023-02-27T04:12:57.864Z,99208.56
2023-02-27T04:15:45.628Z,99196.59
2023-02-27T04:18:31.562Z,99209.72
2023-02-27T04:21:11.205Z,99219.72
2023-02-27T04:23:55.888Z,99237.00
2023-02-27T04:26:33.533Z,99235.53
2023-02-27T04:29:12.826Z,99237.50
2023-02-27T04:31:54.328Z,99242.19
2023-02-27T04:34:34.481Z,99238.47
2023-02-27T04:37:11.705Z,99259.59
2023-02-27T04:39:51.955Z,99252.16
2023-02-27T04:42:30.294Z,99277.34
2023-02-27T04:45:07.342Z,99282.88
2023-02-27T04:47:47.761Z,99284.66
2023-02-27T04:50:36.372Z,99298.88
2023-02-27T04:53:15.565Z,99300.91
2023-02-27T04:55:51.980Z,99315.78
2023-02-27T04:58:29.292Z,99311.13
2023-02-27T05:01:06.437Z,99323.53
2023-02-27T05:03:44.677Z,99139.28
2023-02-27T05:06:23.106Z,99333.22
2023-02-27T05:09:04.741Z,99342.44
2023-02-27T05:11:45.486Z,99339.91
2023-02-27T05:14:26.288Z,99348.09
2023-02-27T05:17:08.098Z,99353.00
2023-02-27T05:19:44.816Z,99352.00
2023-02-27T05:22:29.442Z,99338.34
2023-02-27T05:25:09.204Z,99353.44
2023-02-27T05:27:47.326Z,99358.47
2023-02-27T05:30:26.377Z,99362.81
2023-02-27T05:33:07.026Z,99362.34
2023-02-27T05:35:48.380Z,99370.69
2023-02-27T05:38:26.851Z,99386.31
2023-02-27T05:41:05.994Z,99373.69
2023-02-27T05:43:43.977Z,99398.41
2023-02-27T05:46:21.059Z,99414.97
2023-02-27T05:48:58.239Z,99428.22
2023-02-27T05:51:36.910Z,99418.38
2023-02-27T05:54:17.681Z,99421.56
2023-02-27T05:56:54.593Z,99420.25
2023-02-27T05:59:33.739Z,99447.88
2023-02-27T06:02:08.118Z,99458.00
2023-02-27T06:04:41.929Z,99469.41
2023-02-27T06:07:16.806Z,99480.81
2023-02-27T06:09:51.207Z,99493.22
2023-02-27T06:12:25.840Z,99451.66
2023-02-27T06:14:59.440Z,99544.25
2023-02-27T06:17:33.437Z,99551.47
2023-02-27T06:20:08.295Z,99544.28
2023-02-27T06:22:43.371Z,99549.41
2023-02-27T06:25:16.800Z,99542.25
2023-02-27T06:27:50.340Z,99546.63
2023-02-27T06:30:24.032Z,99550.44
2023-02-27T06:32:57.827Z,99549.91
2023-02-27T06:35:31.258Z,99556.56
2023-02-27T06:38:06.088Z,99562.22
2023-02-27T06:40:39.269Z,99554.75
2023-02-27T06:43:12.492Z,99553.25
2023-02-27T06:45:45.882Z,99546.56
2023-02-27T06:48:19.429Z,99545.75
2023-02-27T06:50:53.772Z,99545.59
2023-02-27T06:53:28.410Z,99550.34
2023-02-27T06:56:01.660Z,99544.88
2023-02-27T06:58:35.340Z,99540.66
2023-02-27T07:01:08.988Z,99534.81
2023-02-27T07:03:42.391Z,99531.84
2023-02-27T07:06:15.898Z,99522.53
2023-02-27T07:09:02.244Z,99529.41
2023-02-27T07:11:40.469Z,99533.09
2023-02-27T07:14:16.670Z,99538.59
2023-02-27T07:16:55.045Z,99529.00
2023-02-27T07:19:28.361Z,99538.28
2023-02-27T07:22:01.643Z,99535.59
2023-02-27T07:24:36.624Z,99521.91
2023-02-27T07:27:10.062Z,99516.25
2023-02-27T07:29:43.516Z,99521.59
2023-02-27T07:32:16.845Z,99530.72
2023-02-27T07:34:50.305Z,99523.25
2023-02-27T07:37:23.555Z,99523.09
2023-02-27T07:39:58.295Z,99516.94
2023-02-27T07:42:32.383Z,99453.34
2023-02-27T07:45:06.729Z,99507.97
2023-02-27T07:47:40.297Z,99513.69
2023-02-27T07:50:15.021Z,99511.69
2023-02-27T07:52:48.216Z,99522.63
2023-02-27T07:55:23.112Z,99523.31
2023-02-27T07:57:56.737Z,99518.19
2023-02-27T08:00:30.448Z,99525.63
2023-02-27T08:03:03.735Z,99526.66
2023-02-27T08:05:37.583Z,99524.69
2023-02-27T08:08:11.186Z,99526.19
2023-02-27T08:10:45.985Z,99533.63
2023-02-27T08:13:30.120Z,99537.19
2023-02-27T08:16:10.754Z,99536.38
2023-02-27T08:18:44.397Z,99541.75
2023-02-27T08:21:17.753Z,99551.84
2023-02-27T08:23:51.141Z,99547.47
2023-02-27T08:26:26.552Z,99548.34
2023-02-27T08:29:00.272Z,99544.88
2023-02-27T08:31:33.638Z,99545.72
2023-02-27T08:34:10.585Z,99535.69
2023-02-27T08:36:44.451Z,99531.84
2023-02-27T08:39:18.585Z,99535.13
2023-02-27T08:41:53.931Z,99533.44
2023-02-27T08:44:27.358Z,99538.66
2023-02-27T08:47:00.624Z,99533.31
2023-02-27T08:49:33.960Z,99543.41
2023-02-27T08:52:09.433Z,99546.28
2023-02-27T08:54:43.075Z,99553.53
2023-02-27T08:57:18.093Z,99544.50
2023-02-27T08:59:51.316Z,99547.16
2023-02-27T09:02:26.396Z,99546.00
2023-02-27T09:05:00.198Z,99548.69
2023-02-27T09:07:34.516Z,99544.81
2023-02-27T09:10:09.106Z,99543.81
2023-02-27T09:12:44.190Z,99548.84
2023-02-27T09:15:18.171Z,99553.06
2023-02-27T09:17:51.884Z,99554.59
2023-02-27T09:20:25.621Z,99552.22
2023-02-27T09:22:59.781Z,99540.63
2023-02-27T09:25:33.632Z,99551.91
2023-02-27T09:28:08.488Z,99543.47
2023-02-27T09:30:41.727Z,99541.44
2023-02-27T09:33:15.237Z,99547.03
2023-02-27T09:35:48.647Z,99543.81
2023-02-27T09:38:22.139Z,99546.31
2023-02-27T09:40:59.527Z,99548.69
2023-02-27T09:43:41.607Z,99543.44
2023-02-27T09:46:19.955Z,99550.69
2023-02-27T09:48:55.973Z,99543.78
2023-02-27T09:51:31.097Z,99548.16
2023-02-27T09:54:06.341Z,99549.81
2023-02-27T09:56:47.063Z,99555.03
2023-02-27T09:59:33.044Z,99551.63
2023-02-27T10:02:22.199Z,99559.41
2023-02-27T10:05:02.869Z,99553.50
2023-02-27T10:07:42.816Z,99557.88
2023-02-27T10:10:26.154Z,99543.78
2023-02-27T10:13:17.981Z,99553.19
2023-02-27T10:15:54.703Z,99546.47
2023-02-27T10:18:32.344Z,99548.66
2023-02-27T10:21:11.953Z,99548.97
2023-02-27T10:23:56.509Z,99529.94
2023-02-27T10:26:34.253Z,99556.53
2023-02-27T10:29:19.051Z,99547.41
2023-02-27T10:32:00.694Z,99543.19
2023-02-27T10:34:35.751Z,99552.16
2023-02-27T10:37:14.512Z,99548.28
2023-02-27T10:39:51.064Z,99549.09
2023-02-27T10:42:26.910Z,99554.31
2023-02-27T10:45:01.256Z,99557.72
2023-02-27T10:47:38.899Z,99551.13
2023-02-27T10:50:24.403Z,99547.06
2023-02-27T10:52:59.772Z,99547.75
2023-02-27T10:55:35.951Z,99511.78
2023-02-27T10:58:09.674Z,99553.69
2023-02-27T11:00:55.299Z,99545.88
2023-02-27T11:03:35.066Z,99535.78
2023-02-27T11:06:13.419Z,99527.69
2023-02-27T11:09:06.648Z,99524.50
2023-02-27T11:11:41.264Z,99513.56
2023-02-27T11:14:27.996Z,99512.16
2023-02-27T11:17:03.800Z,99508.88
2023-02-27T11:19:40.337Z,99520.75
2023-02-27T11:22:18.646Z,99509.47
2023-02-27T11:24:52.755Z,99513.72
2023-02-27T11:27:28.972Z,99500.66
2023-02-27T11:30:06.296Z,99501.63
2023-02-27T11:32:44.433Z,99502.47
2023-02-27T11:35:27.188Z,99495.53
2023-02-27T11:38:02.558Z,99485.09
2023-02-27T11:40:42.041Z,99498.50
2023-02-27T11:43:20.081Z,99497.09
2023-02-27T11:46:12.747Z,99510.91
2023-02-27T11:48:52.258Z,99500.56
2023-02-27T11:51:39.120Z,99511.06
2023-02-27T11:54:22.923Z,99496.81
2023-02-27T11:56:59.317Z,99437.22
2023-02-27T11:59:43.309Z,99501.75
2023-02-27T12:02:23.710Z,99492.06
2023-02-27T12:05:00.836Z,99468.38
2023-02-27T12:07:40.791Z,99501.00
2023-02-27T12:10:19.734Z,99502.34
2023-02-27T12:12:59.775Z,99505.88
2023-02-27T12:15:44.161Z,99513.94
2023-02-27T12:18:24.231Z,99516.06
2023-02-27T12:21:02.569Z,99511.44
2023-02-27T12:23:42.841Z,99526.56
2023-02-27T12:26:25.215Z,99520.22
2023-02-27T12:29:01.403Z,99492.06
2023-02-27T12:31:46.190Z,99510.69
2023-02-27T12:34:28.487Z,99506.97
2023-02-27T12:37:04.849Z,99518.59
2023-02-27T12:39:41.225Z,99521.28
2023-02-27T12:42:46.576Z,99523.72
2023-02-27T12:45:52.092Z,99526.44
2023-02-27T12:48:55.670Z,99522.50
2023-02-27T12:51:44.110Z,99513.50
2023-02-27T12:54:27.860Z,99518.53
2023-02-27T12:57:14.148Z,99526.56
2023-02-27T13:00:07.033Z,99517.63
2023-02-27T13:02:51.491Z,99523.50
2023-02-27T13:05:43.131Z,99527.25
2023-02-27T13:08:38.215Z,99537.94
2023-02-27T13:11:24.917Z,99529.25
2023-02-27T13:14:03.061Z,99528.94
2023-02-27T13:16:42.366Z,99533.72
2023-02-27T13:19:20.887Z,99534.59
2023-02-27T13:21:57.132Z,99454.84
2023-02-27T13:24:32.400Z,99535.25
2023-02-27T13:27:14.811Z,99496.03
2023-02-27T13:30:02.314Z,99555.50
2023-02-27T13:32:44.449Z,99549.78
2023-02-27T13:35:25.144Z,99549.78
2023-02-27T13:38:01.683Z,99547.34
2023-02-27T13:40:38.697Z,99548.59
2023-02-27T13:43:46.420Z,99558.06
2023-02-27T13:46:27.643Z,99561.66
2023-02-27T13:49:29.581Z,99561.66
2023-02-27T13:52:04.132Z,99567.03
2023-02-27T13:54:41.908Z,99569.28
2023-02-27T13:57:27.125Z,99574.38
2023-02-27T14:00:05.216Z,99575.75
2023-02-27T14:02:59.462Z,99577.25
2023-02-27T14:05:37.694Z,99577.25
2023-02-27T14:08:17.309Z,99579.44
2023-02-27T14:10:59.924Z,99563.47
2023-02-27T14:14:00.719Z,99568.22
2023-02-27T14:17:00.077Z,99568.03
2023-02-27T14:19:59.618Z,99553.03
2023-02-27T14:22:55.887Z,99570.88
2023-02-27T14:25:34.507Z,99570.75
2023-02-27T14:28:21.764Z,99568.38
2023-02-27T14:30:59.564Z,99577.59
2023-02-27T14:33:41.573Z,99577.63
2023-02-27T14:36:21.413Z,99504.94
2023-02-27T14:39:01.954Z,99587.09
2023-02-27T14:41:45.017Z,99593.34
2023-02-27T14:44:23.726Z,99587.16
2023-02-27T14:46:58.528Z,99591.19
2023-02-27T14:49:33.947Z,99589.03
2023-02-27T14:52:20.786Z,99597.09
2023-02-27T14:54:54.800Z,99576.44
2023-02-27T14:57:28.225Z,99581.81
2023-02-27T15:00:01.925Z,99581.16
2023-02-27T15:02:38.246Z,99592.25
2023-02-27T15:05:21.909Z,99603.53
2023-02-27T15:07:56.844Z,99605.03
2023-02-27T15:10:33.245Z,99606.88
2023-02-27T15:13:08.234Z,99607.56
2023-02-27T15:15:42.232Z,99606.38
2023-02-27T15:18:16.404Z,99616.81
2023-02-27T15:20:57.024Z,99625.22
2023-02-27T15:23:31.661Z,99634.31
2023-02-27T15:26:05.721Z,99639.19
2023-02-27T15:28:40.218Z,99642.41
2023-02-27T15:31:20.770Z,99650.47
2023-02-27T15:33:54.612Z,99648.06
2023-02-27T15:36:30.889Z,99656.97
2023-02-27T15:39:17.157Z,99668.28
2023-02-27T15:41:53.602Z,99673.28
2023-02-27T15:44:30.029Z,99659.50
2023-02-27T15:47:03.674Z,99668.94
2023-02-27T15:49:38.392Z,99655.13
2023-02-27T15:52:17.846Z,99680.34
2023-02-27T15:54:55.495Z,99683.03
2023-02-27T15:57:30.674Z,99689.56
2023-02-27T16:00:06.996Z,99703.19
2023-02-27T16:02:44.384Z,99705.34
2023-02-27T16:05:20.425Z,99710.56
2023-02-27T16:07:55.022Z,99658.00
2023-02-27T16:10:35.540Z,99716.28
2023-02-27T16:13:23.209Z,99719.47
2023-02-27T16:16:02.613Z,99727.69
2023-02-27T16:18:48.183Z,99714.38
2023-02-27T16:21:23.209Z,99723.59
2023-02-27T16:24:16.558Z,99728.84
2023-02-27T16:26:54.265Z,99733.34
2023-02-27T16:29:33.667Z,99741.03
2023-02-27T16:32:07.455Z,99743.41
2023-02-27T16:34:45.844Z,99750.81
2023-02-27T16:37:22.084Z,99747.06
2023-02-27T16:39:55.395Z,99744.22
2023-02-27T16:42:30.050Z,99751.75
2023-02-27T16:45:03.764Z,99752.38
2023-02-27T16:47:37.286Z,99757.59
2023-02-27T16:50:16.495Z,99743.50
2023-02-27T16:52:50.110Z,99748.34
2023-02-27T16:55:23.505Z,99754.03
2023-02-27T16:57:58.502Z,99752.81
2023-02-27T17:00:34.118Z,99744.25
2023-02-27T17:03:07.455Z,99756.97
2023-02-27T17:05:41.348Z,99764.22
2023-02-27T17:08:14.366Z,99758.44
2023-02-27T17:10:47.991Z,99767.22
2023-02-27T17:13:24.056Z,99769.19
2023-02-27T17:15:58.002Z,99768.16
2023-02-27T17:18:31.420Z,99766.47
2023-02-27T17:21:05.841Z,99773.00
2023-02-27T17:23:39.399Z,99770.78
2023-02-27T17:26:12.621Z,99768.09
2023-02-27T17:28:47.729Z,99762.41
2023-02-27T17:31:23.150Z,99768.25
2023-02-27T17:33:57.043Z,99763.09
2023-02-27T17:36:30.756Z,99770.53
2023-02-27T17:39:04.167Z,99784.91
2023-02-27T17:41:37.587Z,99775.38
2023-02-27T17:44:12.773Z,99790.75
2023-02-27T17:46:47.586Z,99793.72
2023-02-27T17:49:20.846Z,99794.88
2023-02-27T17:51:54.110Z,99794.63
2023-02-27T17:54:27.875Z,99800.84
2023-02-27T17:57:01.637Z,99791.50
2023-02-27T17:59:37.313Z,99791.66
2023-02-27T18:02:12.057Z,99800.00
2023-02-27T18:04:45.353Z,99796.78
2023-02-27T18:07:18.574Z,99793.94
2023-02-27T18:09:51.760Z,99806.97
2023-02-27T18:12:25.491Z,99806.84
2023-02-27T18:15:00.311Z,99800.94
2023-02-27T18:17:34.496Z,99801.94
2023-02-27T18:20:10.198Z,99799.47
2023-02-27T18:22:43.657Z,99799.34
2023-02-27T18:25:16.920Z,99809.94
2023-02-27T18:27:50.652Z,99812.06
2023-02-27T18:30:25.778Z,99806.53
2023-02-27T18:33:00.206Z,99808.38
2023-02-27T18:35:33.857Z,99802.56
2023-02-27T18:38:07.172Z,99807.00
2023-02-27T18:40:40.423Z,99817.50
2023-02-27T18:43:14.691Z,99808.75
2023-02-27T18:45:49.685Z,99802.88
2023-02-27T18:48:23.256Z,99815.38
2023-02-27T18:51:01.229Z,99816.03
2023-02-27T18:53:36.426Z,99816.88
2023-02-27T18:56:11.839Z,99823.47
2023-02-27T18:58:45.285Z,99818.72
2023-02-27T19:01:26.440Z,99822.03
2023-02-27T19:04:03.815Z,99812.63
2023-02-27T19:06:40.960Z,99823.31
2023-02-27T19:09:17.119Z,99811.09
2023-02-27T19:11:51.495Z,99829.00
2023-02-27T19:14:25.937Z,99834.03
2023-02-27T19:17:01.676Z,99834.88
2023-02-27T19:19:36.414Z,99830.66
2023-02-27T19:22:10.033Z,99841.00
2023-02-27T19:24:44.485Z,99843.69
2023-02-27T19:27:18.292Z,99827.94
2023-02-27T19:29:51.884Z,99841.78
2023-02-27T19:32:26.940Z,99853.03
2023-02-27T19:35:00.248Z,99853.88
2023-02-27T19:37:34.029Z,99856.47
2023-02-27T19:40:08.527Z,99859.00
2023-02-27T19:42:42.289Z,99860.69
2023-02-27T19:45:15.728Z,99863.66
2023-02-27T19:47:50.830Z,99868.34
2023-02-27T19:50:24.315Z,99876.50
2023-02-27T19:52:57.783Z,99886.00
2023-02-27T19:55:31.100Z,99878.88
2023-02-27T19:58:05.289Z,99871.16
2023-02-27T20:00:40.723Z,99904.59
2023-02-27T20:03:15.591Z,99899.38
2023-02-27T20:05:49.145Z,99906.19
2023-02-27T20:08:23.236Z,99909.53
2023-02-27T20:10:57.335Z,99899.72
2023-02-27T20:13:31.819Z,99903.78
2023-02-27T20:16:08.504Z,99878.06
2023-02-27T20:18:43.911Z,99903.50
2023-02-27T20:21:20.348Z,99907.59
2023-02-27T20:23:54.040Z,99897.41
2023-02-27T20:26:30.796Z,99900.81
2023-02-27T20:29:06.814Z,99904.78
2023-02-27T20:31:41.801Z,99900.41
2023-02-27T20:34:21.942Z,99884.25
2023-02-27T20:36:56.430Z,99646.78
2023-02-27T20:39:30.448Z,99908.50
2023-02-27T20:42:04.514Z,99915.69
2023-02-27T20:44:38.039Z,99914.84
2023-02-27T20:47:11.468Z,99924.44
2023-02-27T20:49:46.348Z,99923.88
2023-02-27T20:52:19.662Z,99923.63
2023-02-27T20:54:53.588Z,99929.69
2023-02-27T20:57:27.033Z,99934.22
2023-02-27T21:00:00.284Z,99941.25
2023-02-27T21:02:33.619Z,99953.13
2023-02-27T21:05:09.007Z,99953.13
2023-02-27T21:07:42.175Z,99952.84
2023-02-27T21:10:15.738Z,99946.66
2023-02-27T21:12:53.301Z,99960.31
2023-02-27T21:15:27.192Z,99967.66
2023-02-27T21:18:00.833Z,99964.69
2023-02-27T21:20:35.636Z,99971.19
2023-02-27T21:23:08.897Z,99967.22
2023-02-27T21:25:43.797Z,99955.69
2023-02-27T21:28:17.364Z,99973.47
2023-02-27T21:30:54.320Z,99979.50
2023-02-27T21:33:28.165Z,99977.41
2023-02-27T21:36:02.974Z,99952.97
2023-02-27T21:38:36.615Z,99988.94
2023-02-27T21:41:12.655Z,99994.59
2023-02-27T21:43:46.522Z,99992.34
2023-02-27T21:46:20.842Z,99996.28
2023-02-27T21:48:54.088Z,99994.03
2023-02-27T21:51:39.903Z,99996.56
2023-02-27T21:54:14.771Z,99992.47
2023-02-27T21:56:49.380Z,100004.00
2023-02-27T21:59:22.624Z,100005.16
2023-02-27T22:01:56.288Z,99999.66
2023-02-27T22:04:29.631Z,100000.34
2023-02-27T22:07:04.447Z,99951.41
2023-02-27T22:09:37.974Z,100004.16
2023-02-27T22:12:11.628Z,100002.19
2023-02-27T22:14:45.285Z,100013.19
2023-02-27T22:17:18.621Z,100011.63
2023-02-27T22:19:52.900Z,100005.13
2023-02-27T22:22:27.752Z,100014.56
2023-02-27T22:25:01.306Z,100028.59
2023-02-27T22:27:34.801Z,100026.34
2023-02-27T22:30:09.308Z,100023.41
2023-02-27T22:32:42.588Z,100028.47
2023-02-27T22:35:16.462Z,100031.84
2023-02-27T22:37:51.541Z,100025.25
2023-02-27T22:40:24.915Z,100030.97
2023-02-27T22:42:58.473Z,100025.34
2023-02-27T22:45:31.928Z,100042.09
2023-02-27T22:48:05.616Z,100047.44
2023-02-27T22:50:38.972Z,100048.53
2023-02-27T22:53:14.043Z,100066.41
2023-02-27T22:55:54.308Z,100061.09
2023-02-27T22:58:29.644Z,100052.19
2023-02-27T23:01:02.941Z,100054.72
2023-02-27T23:03:36.224Z,100050.06
2023-02-27T23:06:12.148Z,100057.66
2023-02-27T23:08:47.365Z,100070.41
2023-02-27T23:11:22.076Z,100065.63
2023-02-27T23:13:56.640Z,100067.59
2023-02-27T23:16:30.884Z,100068.03
2023-02-27T23:19:05.540Z,100067.53
2023-02-27T23:21:40.151Z,100053.56
2023-02-27T23:24:17.767Z,100053.97
2023-02-27T23:26:53.041Z,100068.91
2023-02-27T23:29:26.328Z,100071.25
2023-02-27T23:31:59.776Z,100079.56
2023-02-27T23:34:47.474Z,100074.50
2023-02-27T23:37:23.103Z,100076.97
2023-02-27T23:39:57.913Z,100080.13
2023-02-27T23:42:48.618Z,100084.56
2023-02-27T23:45:25.001Z,100081.75
2023-02-27T23:48:00.279Z,100070.44
2023-02-27T23:50:35.720Z,100071.31
2023-02-27T23:53:10.419Z,100067.78
2023-02-27T23:55:45.375Z,100071.50
2023-02-27T23:58:18.927Z,100081.88
